createdAt,value
2019-01-05T00:01:17.050Z,62.57
2019-01-05T00:03:48.656Z,60.83
2019-01-05T00:06:28.381Z,59.60
2019-01-05T00:08:57.532Z,67.93
2019-01-05T00:11:40.154Z,64.23
2019-01-05T00:14:27.470Z,56.70
2019-01-05T00:16:59.286Z,65.20
2019-01-05T00:19:44.857Z,61.53
2019-01-05T00:22:13.867Z,61.40
2019-01-05T00:24:42.946Z,61.70
2019-01-05T00:27:12.021Z,63.70
2019-01-05T00:29:57.574Z,58.40
2019-01-05T00:32:39.146Z,59.80
2019-01-05T00:35:25.936Z,68.17
2019-01-05T00:37:58.465Z,63.70
2019-01-05T00:40:36.664Z,65.97
2019-01-05T00:43:08.685Z,67.97
2019-01-05T00:45:37.742Z,71.70
2019-01-05T00:48:24.900Z,60.77
2019-01-05T00:50:53.888Z,56.90
2019-01-05T00:53:41.178Z,64.67
2019-01-05T00:56:26.790Z,55.87
2019-01-05T00:59:05.104Z,57.43
2019-01-05T01:01:34.198Z,59.83
2019-01-05T01:04:06.040Z,55.40
2019-01-05T01:06:47.550Z,56.63
2019-01-05T01:09:22.437Z,63.40
2019-01-05T01:11:52.698Z,51.53
2019-01-05T01:14:36.810Z,48.40
2019-01-05T01:17:11.623Z,53.07
2019-01-05T01:19:51.323Z,49.23
2019-01-05T01:22:20.439Z,47.47
2019-01-05T01:25:07.151Z,45.53
2019-01-05T01:27:37.877Z,45.30
2019-01-05T01:30:24.193Z,46.37
2019-01-05T01:33:08.490Z,45.30
2019-01-05T01:35:53.807Z,45.43
2019-01-05T01:38:27.134Z,46.83
2019-01-05T01:41:08.003Z,41.47
2019-01-05T01:43:54.400Z,37.43
2019-01-05T01:46:35.710Z,41.53
2019-01-05T01:49:19.911Z,45.30
2019-01-05T01:52:05.355Z,40.33
2019-01-05T01:54:36.048Z,40.23
2019-01-05T01:57:17.082Z,40.80
2019-01-05T02:00:04.098Z,38.50
2019-01-05T02:02:38.421Z,43.93
2019-01-05T02:05:20.729Z,40.73
2019-01-05T02:07:55.880Z,41.47
2019-01-05T02:10:27.616Z,41.33
2019-01-05T02:13:05.265Z,36.73
2019-01-05T02:15:43.509Z,39.60
2019-01-05T02:18:25.925Z,39.63
2019-01-05T02:21:05.577Z,37.03
2019-01-05T02:23:52.498Z,39.57
2019-01-05T02:26:28.862Z,36.67
2019-01-05T02:29:31.582Z,39.00
2019-01-05T02:32:08.027Z,37.90
2019-01-05T02:34:47.526Z,38.90
2019-01-05T02:37:36.316Z,34.10
2019-01-05T02:40:10.223Z,36.40
2019-01-05T02:42:46.976Z,35.57
2019-01-05T02:45:20.333Z,35.07
2019-01-05T02:48:03.588Z,40.87
2019-01-05T02:50:43.013Z,36.00
2019-01-05T02:53:48.687Z,36.63
2019-01-05T02:56:25.870Z,34.63
2019-01-05T02:59:05.423Z,34.53
2019-01-05T03:01:41.882Z,37.73
2019-01-05T03:04:37.863Z,32.57
2019-01-05T03:07:11.307Z,32.43
2019-01-05T03:10:11.026Z,36.50
2019-01-05T03:13:12.271Z,34.70
2019-01-05T03:15:58.757Z,34.87
2019-01-05T03:18:39.442Z,34.43
2019-01-05T03:21:31.117Z,34.43
2019-01-05T03:24:35.011Z,37.60
2019-01-05T03:27:08.886Z,38.27
2019-01-05T03:29:59.173Z,31.83
2019-01-05T03:32:44.661Z,33.00
2019-01-05T03:35:20.919Z,34.00
2019-01-05T03:38:09.204Z,33.33
2019-01-05T03:41:00.267Z,33.77
2019-01-05T03:43:43.005Z,33.00
2019-01-05T03:46:29.769Z,31.90
2019-01-05T03:52:15.909Z,36.13
2019-01-05T03:55:19.687Z,38.00
2019-01-05T03:58:24.499Z,34.57
2019-01-05T04:01:15.676Z,36.33
2019-01-05T04:04:02.758Z,34.63
2019-01-05T04:06:34.649Z,35.17
2019-01-05T04:09:17.188Z,34.57
2019-01-05T04:12:06.190Z,36.10
2019-01-05T04:15:00.715Z,33.83
2019-01-05T04:18:04.355Z,35.77
2019-01-05T04:20:53.873Z,28.33
2019-01-05T04:23:39.514Z,31.37
2019-01-05T04:26:33.587Z,34.93
2019-01-05T04:29:37.596Z,33.60
2019-01-05T04:35:20.465Z,30.13
2019-01-05T04:38:11.737Z,28.37
2019-01-05T04:43:58.685Z,28.20
2019-01-05T04:46:48.490Z,29.77
2019-01-05T04:49:21.687Z,32.07
2019-01-05T04:52:23.115Z,28.27
2019-01-05T04:55:05.266Z,30.47
2019-01-05T04:57:50.273Z,28.03
2019-01-05T05:00:32.521Z,29.97
2019-01-05T05:03:17.919Z,27.97
2019-01-05T05:06:15.715Z,27.43
2019-01-05T05:08:55.616Z,26.73
2019-01-05T05:11:44.288Z,27.23
2019-01-05T05:14:42.223Z,28.83
2019-01-05T05:17:48.924Z,31.03
2019-01-05T05:20:38.926Z,31.63
2019-01-05T05:23:29.315Z,31.23
2019-01-05T05:26:14.959Z,32.63
2019-01-05T05:29:15.719Z,34.53
2019-01-05T05:31:52.457Z,33.57
2019-01-05T05:34:35.067Z,32.30
2019-01-05T05:37:29.039Z,37.63
2019-01-05T05:40:20.704Z,37.60
2019-01-05T05:42:57.008Z,35.73
2019-01-05T05:45:37.443Z,31.50
2019-01-05T05:48:38.154Z,26.70
2019-01-05T05:51:20.534Z,30.07
2019-01-05T05:53:54.097Z,27.70
2019-01-05T05:56:24.726Z,31.30
2019-01-05T05:59:07.398Z,29.67
2019-01-05T06:01:49.643Z,29.43
2019-01-05T06:04:25.914Z,31.23
2019-01-05T06:07:28.090Z,30.87
2019-01-05T06:09:58.734Z,26.87
2019-01-05T06:12:45.019Z,30.07
2019-01-05T06:15:21.301Z,33.77
2019-01-05T06:18:26.950Z,28.37
2019-01-05T06:21:20.024Z,32.70
2019-01-05T06:24:17.290Z,39.27
2019-01-05T06:27:07.328Z,32.53
2019-01-05T06:29:43.508Z,33.17
2019-01-05T06:32:37.824Z,32.23
2019-01-05T06:35:25.137Z,32.67
2019-01-05T06:38:10.682Z,30.67
2019-01-05T06:40:50.333Z,29.93
2019-01-05T06:43:47.709Z,30.23
2019-01-05T06:46:37.477Z,33.03
2019-01-05T06:49:43.378Z,31.97
2019-01-05T06:52:50.557Z,29.73
2019-01-05T06:55:26.572Z,31.77
2019-01-05T06:58:15.289Z,33.17
2019-01-05T07:01:19.335Z,30.53
2019-01-05T07:04:01.758Z,32.60
2019-01-05T07:06:44.202Z,33.57
2019-01-05T07:09:48.238Z,32.70
2019-01-05T07:12:30.878Z,30.27
2019-01-05T07:15:20.778Z,33.83
2019-01-05T07:18:06.474Z,30.43
2019-01-05T07:20:59.310Z,26.73
2019-01-05T07:23:53.483Z,30.67
2019-01-05T07:26:53.186Z,32.23
2019-01-05T07:29:40.639Z,30.00
2019-01-05T07:32:44.330Z,30.97
2019-01-05T07:35:40.782Z,33.87
2019-01-05T07:38:23.382Z,31.63
2019-01-05T07:41:09.024Z,36.17
2019-01-05T07:44:04.354Z,30.67
2019-01-05T07:46:50.203Z,37.67
2019-01-05T07:49:45.060Z,33.40
2019-01-05T07:52:31.305Z,41.23
2019-01-05T07:55:12.865Z,34.83
2019-01-05T07:57:54.704Z,40.03
2019-01-05T08:00:31.066Z,45.87
2019-01-05T08:03:25.224Z,48.00
2019-01-05T08:06:12.287Z,49.13
2019-01-05T08:08:46.080Z,48.43
2019-01-05T08:11:22.471Z,53.27
2019-01-05T08:13:58.767Z,44.67
2019-01-05T08:16:35.436Z,44.10
2019-01-05T08:19:25.364Z,41.53
2019-01-05T08:22:16.747Z,41.57
2019-01-05T08:24:50.522Z,44.53
2019-01-05T08:27:53.998Z,44.47
2019-01-05T08:30:36.084Z,37.87
2019-01-05T08:33:22.967Z,45.20
2019-01-05T08:35:59.493Z,43.00
2019-01-05T08:38:46.219Z,45.60
2019-01-05T08:41:36.541Z,44.60
2019-01-05T08:44:25.061Z,45.37
2019-01-05T08:47:01.631Z,52.93
2019-01-05T08:49:35.144Z,52.83
2019-01-05T08:52:15.077Z,59.00
2019-01-05T08:54:51.357Z,57.17
2019-01-05T08:57:40.392Z,59.07
2019-01-05T09:00:11.109Z,61.10
2019-01-05T09:02:56.899Z,62.97
2019-01-05T09:05:33.290Z,61.60
2019-01-05T09:08:12.149Z,65.57
2019-01-05T09:11:02.343Z,67.50
2019-01-05T09:13:53.624Z,68.03
2019-01-05T09:16:40.814Z,61.97
2019-01-05T09:19:28.061Z,61.43
2019-01-05T09:22:27.186Z,58.10
2019-01-05T09:25:17.744Z,61.77
2019-01-05T09:28:00.566Z,56.13
2019-01-05T09:30:33.893Z,49.80
2019-01-05T09:33:20.986Z,52.83
2019-01-05T09:36:20.277Z,47.07
2019-01-05T09:39:02.889Z,41.93
2019-01-05T09:41:42.273Z,44.73
2019-01-05T09:44:42.495Z,41.63
2019-01-05T09:47:18.737Z,50.73
2019-01-05T09:49:57.533Z,55.13
2019-01-05T09:52:44.664Z,53.93
2019-01-05T09:55:32.504Z,51.00
2019-01-05T09:58:26.779Z,51.70
2019-01-05T10:01:14.209Z,56.53
2019-01-05T10:04:00.089Z,64.50
2019-01-05T10:06:52.844Z,61.70
2019-01-05T10:09:31.991Z,65.50
2019-01-05T10:12:22.250Z,67.57
2019-01-05T10:15:17.168Z,72.40
2019-01-05T10:17:56.071Z,71.47
2019-01-05T10:20:35.304Z,72.57
2019-01-05T10:23:34.419Z,72.47
2019-01-05T10:26:29.988Z,74.67
2019-01-05T10:29:17.257Z,73.53
2019-01-05T10:31:59.871Z,68.00
2019-01-05T10:34:49.509Z,67.10
2019-01-05T10:37:34.928Z,66.70
2019-01-05T10:40:27.863Z,63.37
2019-01-05T10:43:16.382Z,63.23
2019-01-05T10:45:49.824Z,60.70
2019-01-05T10:48:29.555Z,69.40
2019-01-05T10:51:11.879Z,59.37
2019-01-05T10:54:02.599Z,63.10
2019-01-05T10:57:09.752Z,63.43
2019-01-05T11:00:13.203Z,60.93
2019-01-05T11:03:06.249Z,59.47
2019-01-05T11:06:04.807Z,61.43
2019-01-05T11:08:44.097Z,54.20
2019-01-05T11:11:17.348Z,57.17
2019-01-05T11:14:11.854Z,53.73
2019-01-05T11:17:17.288Z,58.53
2019-01-05T11:20:04.735Z,70.50
2019-01-05T11:22:47.216Z,59.63
2019-01-05T11:25:29.497Z,73.90
2019-01-05T11:28:16.462Z,63.10
2019-01-05T11:31:17.712Z,66.80
2019-01-05T11:34:13.070Z,81.70
2019-01-05T11:37:16.268Z,81.50
2019-01-05T11:39:52.847Z,76.90
2019-01-05T11:42:38.524Z,83.50
2019-01-05T11:45:20.869Z,80.07
2019-01-05T11:48:05.586Z,64.27
2019-01-05T11:50:38.974Z,56.30
2019-01-05T11:53:29.317Z,57.73
2019-01-05T11:56:33.261Z,72.23
2019-01-05T11:59:15.846Z,72.37
2019-01-05T12:01:58.440Z,81.10
2019-01-05T12:04:53.440Z,68.13
2019-01-05T12:07:36.018Z,60.63
2019-01-05T12:10:25.561Z,65.83
2019-01-05T12:13:23.729Z,63.47
2019-01-05T12:16:14.890Z,57.57
2019-01-05T12:19:00.629Z,55.40
2019-01-05T12:21:52.665Z,43.43
2019-01-05T12:24:29.194Z,38.40
2019-01-05T12:27:08.963Z,40.40
2019-01-05T12:30:02.093Z,49.20
2019-01-05T12:33:05.942Z,40.23
2019-01-05T12:35:59.186Z,48.10
2019-01-05T12:38:38.567Z,41.67
2019-01-05T12:41:27.341Z,36.43
2019-01-05T12:44:13.071Z,44.80
2019-01-05T12:46:58.604Z,44.53
2019-01-05T12:49:53.342Z,38.73
2019-01-05T12:52:30.153Z,43.10
2019-01-05T12:55:42.842Z,41.87
2019-01-05T12:58:39.299Z,40.47
2019-01-05T13:01:32.259Z,45.60
2019-01-05T13:04:20.914Z,38.90
2019-01-05T13:07:12.508Z,48.23
2019-01-05T13:09:57.944Z,46.27
2019-01-05T13:12:51.103Z,41.23
2019-01-05T13:15:24.339Z,43.97
2019-01-05T13:18:15.840Z,29.07
2019-01-05T13:24:09.861Z,42.37
2019-01-05T13:27:05.404Z,39.07
2019-01-05T13:29:56.426Z,44.80
2019-01-05T13:32:52.574Z,37.27
2019-01-05T13:35:23.280Z,34.13
2019-01-05T13:38:08.717Z,31.67
2019-01-05T13:40:48.047Z,33.37
2019-01-05T13:43:23.077Z,42.57
2019-01-05T13:46:17.260Z,37.07
2019-01-05T13:49:11.964Z,35.23
2019-01-05T13:54:54.466Z,46.67
2019-01-05T13:57:26.444Z,46.93
2019-01-05T13:59:55.594Z,36.53
2019-01-05T14:02:42.098Z,41.07
2019-01-05T14:05:20.306Z,38.57
2019-01-05T14:07:57.986Z,36.43
2019-01-05T14:10:27.086Z,42.13
2019-01-05T14:13:13.767Z,48.77
2019-01-05T14:15:42.898Z,49.73
2019-01-05T14:18:25.428Z,31.87
2019-01-05T14:21:00.363Z,49.20
2019-01-05T14:23:35.195Z,47.67
2019-01-05T14:26:04.299Z,30.47
2019-01-05T14:28:48.193Z,44.37
2019-01-05T14:31:17.334Z,57.10
2019-01-05T14:33:46.333Z,73.37
2019-01-05T14:36:18.289Z,61.60
2019-01-05T14:39:04.037Z,51.57
2019-01-05T14:41:46.130Z,50.13
2019-01-05T14:44:15.129Z,78.80
2019-01-05T14:46:45.357Z,64.37
2019-01-05T14:49:30.385Z,79.57
2019-01-05T14:52:02.191Z,63.43
2019-01-05T14:54:47.233Z,53.03
2019-01-05T14:57:16.305Z,53.20
2019-01-05T14:59:45.481Z,62.30
2019-01-05T15:02:26.210Z,96.90
2019-01-05T15:05:11.489Z,35.10
2019-01-05T15:07:40.689Z,37.70
2019-01-05T15:10:09.785Z,36.33
2019-01-05T15:12:38.815Z,46.37
2019-01-05T15:15:24.456Z,41.30
2019-01-05T15:18:09.861Z,40.03
2019-01-05T15:20:57.089Z,127.53
2019-01-05T15:23:28.715Z,82.93
2019-01-05T15:26:14.076Z,72.07
2019-01-05T15:28:49.333Z,53.77
2019-01-05T15:31:27.554Z,59.10
2019-01-05T15:34:14.736Z,50.70
2019-01-05T15:36:43.791Z,56.33
2019-01-05T15:39:29.026Z,59.03
2019-01-05T15:42:13.160Z,49.60
2019-01-05T15:45:00.375Z,61.43
2019-01-05T15:47:35.461Z,64.27
2019-01-05T15:50:10.842Z,52.07
2019-01-05T15:52:42.882Z,62.07
2019-01-05T15:55:14.634Z,66.53
2019-01-05T15:58:00.681Z,57.73
2019-01-05T16:00:34.771Z,105.57
2019-01-05T16:03:21.481Z,90.20
2019-01-05T16:05:57.513Z,84.10
2019-01-05T16:08:38.694Z,100.57
2019-01-05T16:11:24.080Z,95.97
2019-01-05T16:14:04.721Z,70.63
2019-01-05T16:16:49.985Z,69.03
2019-01-05T16:19:30.604Z,67.70
2019-01-05T16:22:15.987Z,55.47
2019-01-05T16:24:45.220Z,66.33
2019-01-05T16:27:20.114Z,53.40
2019-01-05T16:30:01.169Z,54.03
2019-01-05T16:32:36.142Z,50.67
2019-01-05T16:35:11.557Z,54.73
2019-01-05T16:37:58.458Z,59.80
2019-01-05T16:40:27.561Z,51.60
2019-01-05T16:43:08.700Z,52.53
2019-01-05T16:45:43.816Z,64.07
2019-01-05T16:48:31.393Z,54.07
2019-01-05T16:51:06.401Z,69.33
2019-01-05T16:53:44.506Z,86.87
2019-01-05T16:59:06.254Z,81.27
2019-01-05T17:01:52.044Z,88.43
2019-01-05T17:04:21.010Z,81.73
2019-01-05T17:07:08.187Z,55.33
2019-01-05T17:09:43.224Z,61.67
2019-01-05T17:12:15.358Z,70.40
2019-01-05T17:14:50.622Z,69.87
2019-01-05T17:17:22.336Z,83.90
2019-01-05T17:20:00.330Z,77.10
2019-01-05T17:22:33.580Z,66.60
2019-01-05T17:25:19.159Z,70.30
2019-01-05T17:27:54.190Z,55.77
2019-01-05T17:30:23.209Z,55.07
2019-01-05T17:33:01.162Z,57.73
2019-01-05T17:35:32.710Z,53.90
2019-01-05T17:38:10.357Z,65.20
2019-01-05T17:40:41.371Z,66.30
2019-01-05T17:43:12.575Z,71.40
2019-01-05T17:45:58.362Z,72.20
2019-01-05T17:48:33.617Z,80.60
2019-01-05T17:51:11.576Z,71.30
2019-01-05T17:53:56.851Z,80.93
2019-01-05T17:56:32.252Z,68.63
2019-01-05T17:59:01.319Z,83.57
2019-01-05T18:01:42.460Z,76.97
2019-01-05T18:04:17.542Z,72.10
2019-01-05T18:06:55.640Z,67.60
2019-01-05T18:09:27.807Z,75.90
2019-01-05T18:12:13.096Z,65.60
2019-01-05T18:14:42.092Z,70.50
2019-01-05T18:17:13.921Z,65.27
2019-01-05T18:19:55.439Z,62.60
2019-01-05T18:22:33.452Z,71.37
2019-01-05T18:27:53.557Z,53.93
2019-01-05T18:30:25.751Z,63.10
2019-01-05T18:33:06.356Z,59.87
2019-01-05T18:35:50.563Z,74.10
2019-01-05T18:38:31.681Z,58.10
2019-01-05T18:41:17.622Z,63.80
2019-01-05T18:43:52.801Z,51.50
2019-01-05T18:46:22.844Z,54.30
2019-01-05T18:48:53.636Z,61.67
2019-01-05T18:51:39.321Z,51.50
2019-01-05T18:54:14.207Z,28.60
2019-01-05T18:56:59.722Z,40.87
2019-01-05T18:59:28.762Z,53.37
2019-01-05T19:02:04.160Z,29.07
2019-01-05T19:04:42.293Z,32.47
2019-01-05T19:07:11.504Z,22.27
2019-01-05T19:09:49.486Z,24.80
2019-01-05T19:12:35.812Z,22.63
2019-01-05T19:15:04.862Z,23.33
2019-01-05T19:17:33.991Z,29.30
2019-01-05T19:20:19.589Z,19.60
2019-01-05T19:22:50.016Z,19.67
2019-01-05T19:25:19.101Z,22.97
2019-01-05T19:27:50.815Z,63.50
2019-01-05T19:30:35.916Z,23.93
2019-01-05T19:33:10.554Z,28.50
2019-01-05T19:35:55.836Z,22.83
2019-01-05T19:38:33.890Z,19.77
2019-01-05T19:41:02.950Z,27.70
2019-01-05T19:43:48.662Z,24.37
2019-01-05T19:46:17.858Z,29.57
2019-01-05T19:48:59.777Z,33.30
2019-01-05T19:51:31.568Z,22.53
2019-01-05T19:54:00.815Z,34.47
2019-01-05T19:56:41.594Z,36.07
2019-01-05T19:59:10.632Z,24.37
2019-01-05T20:01:48.668Z,23.33
2019-01-05T20:04:23.865Z,37.73
2019-01-05T20:06:55.890Z,45.60
2019-01-05T20:09:42.729Z,54.30
2019-01-05T20:12:14.819Z,47.53
2019-01-05T20:14:56.087Z,59.87
2019-01-05T20:17:41.551Z,60.00
2019-01-05T20:20:36.332Z,50.70
2019-01-05T20:23:15.788Z,58.00
2019-01-05T20:25:47.752Z,50.73
2019-01-05T20:28:33.448Z,40.83
2019-01-05T20:31:11.478Z,50.57
2019-01-05T20:33:40.585Z,38.43
2019-01-05T20:36:09.633Z,42.77
2019-01-05T20:38:38.728Z,45.03
2019-01-05T20:41:19.892Z,41.77
2019-01-05T20:44:05.214Z,44.07
2019-01-05T20:46:50.814Z,50.80
2019-01-05T20:49:24.161Z,50.17
2019-01-05T20:52:09.745Z,44.90
2019-01-05T20:54:38.849Z,53.83
2019-01-05T20:57:07.867Z,49.80
2019-01-05T20:59:52.256Z,48.20
2019-01-05T21:02:21.314Z,48.10
2019-01-05T21:04:56.149Z,47.07
2019-01-05T21:07:31.191Z,44.83
2019-01-05T21:10:15.237Z,41.07
2019-01-05T21:12:53.248Z,39.77
2019-01-05T21:15:22.357Z,35.90
2019-01-05T21:18:03.279Z,39.20
2019-01-05T21:20:35.958Z,41.70
2019-01-05T21:23:10.772Z,39.40
2019-01-05T21:25:45.807Z,32.43
2019-01-05T21:28:30.866Z,22.50
2019-01-05T21:31:14.984Z,26.40
2019-01-05T21:33:44.039Z,33.80
2019-01-05T21:36:18.991Z,27.53
2019-01-05T21:38:54.052Z,26.47
2019-01-05T21:41:31.897Z,28.23
2019-01-05T21:44:09.695Z,31.70
2019-01-05T21:46:56.762Z,38.63
2019-01-05T21:49:31.421Z,31.00
2019-01-05T21:52:18.293Z,31.10
2019-01-05T21:54:53.171Z,32.73
2019-01-05T21:57:22.279Z,56.57
2019-01-05T22:00:00.157Z,53.33
2019-01-05T22:02:35.239Z,52.23
2019-01-05T22:05:19.211Z,35.13
2019-01-05T22:08:03.518Z,39.17
2019-01-05T22:10:45.197Z,70.20
2019-01-05T22:13:23.073Z,72.87
2019-01-05T22:16:10.531Z,40.83
2019-01-05T22:18:39.567Z,33.13
2019-01-05T22:21:08.609Z,30.07
2019-01-05T22:23:54.634Z,25.57
2019-01-05T22:26:32.849Z,19.00
2019-01-05T22:29:04.472Z,18.80
2019-01-05T22:31:42.234Z,17.17
2019-01-05T22:34:11.567Z,17.47
2019-01-05T22:36:57.108Z,18.83
2019-01-05T22:39:26.208Z,24.00
2019-01-05T22:42:04.113Z,17.73
2019-01-05T22:44:36.905Z,24.23
2019-01-05T22:47:17.777Z,16.17
2019-01-05T22:49:46.857Z,17.33
2019-01-05T22:52:32.791Z,22.03
2019-01-05T22:55:18.085Z,19.73
2019-01-05T22:58:05.028Z,28.03
2019-01-05T23:00:49.313Z,22.03
2019-01-05T23:03:18.333Z,19.30
2019-01-05T23:05:48.268Z,19.70
2019-01-05T23:08:33.541Z,32.40
2019-01-05T23:11:02.558Z,39.73
2019-01-05T23:13:37.812Z,33.83
2019-01-05T23:16:15.981Z,33.37
2019-01-05T23:18:59.753Z,47.63
2019-01-05T23:21:34.371Z,57.80
2019-01-05T23:24:19.921Z,42.97
2019-01-05T23:26:48.937Z,33.43
2019-01-05T23:29:18.112Z,55.03
2019-01-05T23:31:47.126Z,59.07
2019-01-05T23:34:16.848Z,41.77
2019-01-05T23:37:04.571Z,39.67
2019-01-05T23:39:50.049Z,43.60
2019-01-05T23:42:35.578Z,48.73
2019-01-05T23:45:13.430Z,36.50
2019-01-05T23:47:44.298Z,32.07
2019-01-05T23:50:29.540Z,22.20
2019-01-05T23:53:04.220Z,25.80
2019-01-05T23:55:42.323Z,31.90
2019-01-05T23:58:18.287Z,25.30
